createdAt,value
2023-05-17T00:00:18.850Z,2.03
2023-05-17T00:05:13.232Z,2.25
2023-05-17T00:07:39.764Z,1.80
2023-05-17T00:10:07.565Z,1.83
2023-05-17T00:12:34.090Z,2.10
2023-05-17T00:15:00.558Z,1.73
2023-05-17T00:17:27.334Z,1.88
2023-05-17T00:19:53.874Z,1.83
2023-05-17T00:22:21.808Z,2.50
2023-05-17T00:24:48.304Z,1.52
2023-05-17T00:27:14.808Z,1.80
2023-05-17T00:29:41.285Z,1.58
2023-05-17T00:32:07.771Z,1.85
2023-05-17T00:34:34.258Z,2.08
2023-05-17T00:37:00.762Z,1.70
2023-05-17T00:39:28.557Z,2.08
2023-05-17T00:41:55.081Z,1.83
2023-05-17T00:44:21.588Z,1.75
2023-05-17T00:46:48.093Z,2.00
2023-05-17T00:49:14.627Z,1.95
2023-05-17T00:51:41.210Z,2.07
2023-05-17T00:54:07.888Z,2.10
2023-05-17T00:56:35.960Z,1.77
2023-05-17T00:59:04.101Z,2.55
2023-05-17T01:01:30.588Z,1.70
2023-05-17T01:03:57.298Z,1.75
2023-05-17T01:06:24.074Z,1.75
2023-05-17T01:08:50.735Z,1.73
2023-05-17T01:11:29.177Z,1.73
2023-05-17T01:14:02.316Z,2.17
2023-05-17T01:16:33.251Z,2.03
2023-05-17T01:19:12.454Z,1.70
2023-05-17T01:21:51.829Z,1.40
2023-05-17T01:24:28.600Z,2.70
2023-05-17T01:26:57.132Z,2.53
2023-05-17T01:29:26.429Z,2.30
2023-05-17T01:31:53.545Z,2.92
2023-05-17T01:34:26.756Z,2.05
2023-05-17T01:36:53.404Z,1.50
2023-05-17T01:39:19.939Z,1.53
2023-05-17T01:41:56.109Z,2.50
2023-05-17T01:44:28.733Z,1.95
2023-05-17T01:47:00.800Z,1.95
2023-05-17T01:49:31.205Z,1.80
2023-05-17T01:52:03.249Z,1.60
2023-05-17T01:54:36.966Z,1.77
2023-05-17T01:57:06.654Z,1.88
2023-05-17T01:59:38.091Z,1.67
2023-05-17T02:02:05.448Z,1.52
2023-05-17T02:04:33.408Z,1.95
2023-05-17T02:06:59.920Z,1.95
2023-05-17T02:09:26.533Z,2.15
2023-05-17T02:11:53.062Z,1.90
2023-05-17T02:14:19.615Z,1.70
2023-05-17T02:16:47.476Z,1.77
2023-05-17T02:19:13.976Z,2.10
2023-05-17T02:21:40.597Z,2.13
2023-05-17T02:24:07.352Z,2.37
2023-05-17T02:26:33.888Z,2.13
2023-05-17T02:29:00.498Z,1.67
2023-05-17T02:31:27.125Z,2.07
2023-05-17T02:33:55.234Z,1.73
2023-05-17T02:36:21.862Z,1.98
2023-05-17T02:38:48.424Z,2.63
2023-05-17T02:41:14.921Z,1.60
2023-05-17T02:43:41.380Z,3.00
2023-05-17T02:46:08.209Z,1.90
2023-05-17T02:48:34.739Z,1.58
2023-05-17T02:51:02.629Z,1.98
2023-05-17T02:53:29.123Z,1.73
2023-05-17T02:55:55.624Z,2.53
2023-05-17T02:58:22.183Z,1.95
2023-05-17T03:00:48.682Z,2.53
2023-05-17T03:03:15.260Z,2.13
2023-05-17T03:05:41.887Z,2.08
2023-05-17T03:08:09.801Z,2.08
2023-05-17T03:10:36.442Z,2.20
2023-05-17T03:13:02.939Z,1.70
2023-05-17T03:15:29.949Z,1.90
2023-05-17T03:17:56.850Z,2.05
2023-05-17T03:20:23.726Z,1.92
2023-05-17T03:22:50.229Z,1.95
2023-05-17T03:25:18.659Z,2.03
2023-05-17T03:27:45.339Z,1.80
2023-05-17T03:30:12.248Z,1.80
2023-05-17T03:32:39.631Z,2.50
2023-05-17T03:37:32.810Z,2.13
2023-05-17T03:39:59.306Z,1.88
2023-05-17T03:42:27.199Z,1.93
2023-05-17T03:44:54.056Z,2.20
2023-05-17T03:47:20.686Z,2.28
2023-05-17T03:49:47.221Z,2.78
2023-05-17T03:52:13.796Z,2.23
2023-05-17T03:54:40.344Z,2.27
2023-05-17T03:57:06.901Z,2.65
2023-05-17T03:59:34.862Z,2.30
2023-05-17T04:02:01.684Z,1.98
2023-05-17T04:04:28.389Z,2.00
2023-05-17T04:06:54.965Z,2.22
2023-05-17T04:09:21.471Z,2.25
2023-05-17T04:11:48.008Z,2.23
2023-05-17T04:14:14.802Z,2.20
2023-05-17T04:16:42.662Z,2.33
2023-05-17T04:19:09.250Z,2.53
2023-05-17T04:21:35.838Z,2.83
2023-05-17T04:24:02.516Z,2.23
2023-05-17T04:26:29.086Z,2.35
2023-05-17T04:28:55.544Z,2.50
2023-05-17T04:31:22.069Z,2.70
2023-05-17T04:33:49.969Z,1.92
2023-05-17T04:36:16.490Z,2.53
2023-05-17T04:38:43.025Z,2.65
2023-05-17T04:41:09.636Z,2.20
2023-05-17T04:43:36.153Z,2.50
2023-05-17T04:46:02.699Z,2.05
2023-05-17T04:48:31.498Z,3.07
2023-05-17T04:51:02.029Z,2.13
2023-05-17T04:53:28.497Z,2.20
2023-05-17T04:55:54.992Z,2.83
2023-05-17T04:58:21.518Z,2.67
2023-05-17T05:00:48.025Z,3.47
2023-05-17T05:03:14.600Z,2.22
2023-05-17T05:05:41.212Z,2.53
2023-05-17T05:08:09.905Z,2.47
2023-05-17T05:10:36.421Z,2.63
2023-05-17T05:13:02.895Z,2.60
2023-05-17T05:15:29.734Z,2.30
2023-05-17T05:17:56.447Z,2.55
2023-05-17T05:20:23.345Z,2.27
2023-05-17T05:22:50.663Z,2.40
2023-05-17T05:25:18.601Z,2.22
2023-05-17T05:27:45.081Z,2.35
2023-05-17T05:30:12.884Z,2.50
2023-05-17T05:32:39.478Z,2.60
2023-05-17T05:35:06.568Z,2.50
2023-05-17T05:37:33.107Z,3.20
2023-05-17T05:39:59.599Z,2.10
2023-05-17T05:42:27.421Z,2.65
2023-05-17T05:44:53.938Z,2.58
2023-05-17T05:47:20.437Z,2.92
2023-05-17T05:49:46.932Z,2.60
2023-05-17T05:52:13.462Z,2.42
2023-05-17T05:54:39.944Z,2.42
2023-05-17T05:57:06.445Z,2.78
2023-05-17T05:59:34.270Z,2.78
2023-05-17T06:02:00.778Z,2.88
2023-05-17T06:04:36.812Z,2.92
2023-05-17T06:07:11.436Z,2.85
2023-05-17T06:09:37.932Z,2.78
2023-05-17T06:12:04.873Z,2.60
2023-05-17T06:14:31.399Z,2.95
2023-05-17T06:16:59.248Z,2.47
2023-05-17T06:19:26.007Z,2.42
2023-05-17T06:21:52.716Z,2.30
2023-05-17T06:24:19.220Z,3.70
2023-05-17T06:26:45.749Z,2.30
2023-05-17T06:29:12.301Z,2.72
2023-05-17T06:31:38.776Z,2.17
2023-05-17T06:34:06.701Z,2.83
2023-05-17T06:36:34.214Z,2.33
2023-05-17T06:39:01.752Z,3.13
2023-05-17T06:41:28.381Z,2.65
2023-05-17T06:43:55.039Z,2.55
2023-05-17T06:46:21.517Z,3.17
2023-05-17T06:48:50.797Z,2.75
2023-05-17T06:51:19.091Z,4.13
2023-05-17T06:53:45.607Z,2.63
2023-05-17T06:56:12.081Z,3.00
2023-05-17T06:58:38.596Z,2.88
2023-05-17T07:01:05.298Z,3.05
2023-05-17T07:03:31.933Z,2.70
2023-05-17T07:05:58.566Z,2.93
2023-05-17T07:08:26.423Z,2.63
2023-05-17T07:10:52.958Z,3.53
2023-05-17T07:13:19.506Z,3.17
2023-05-17T07:15:46.120Z,3.20
2023-05-17T07:18:12.711Z,2.90
2023-05-17T07:20:39.604Z,3.30
2023-05-17T07:23:06.111Z,3.13
2023-05-17T07:25:33.977Z,3.00
2023-05-17T07:28:00.489Z,4.38
2023-05-17T07:30:27.072Z,3.10
2023-05-17T07:32:53.664Z,3.40
2023-05-17T07:35:21.806Z,3.47
2023-05-17T07:37:48.731Z,3.30
2023-05-17T07:40:15.378Z,2.80
2023-05-17T07:42:43.204Z,2.80
2023-05-17T07:45:10.157Z,4.60
2023-05-17T07:47:36.712Z,3.00
2023-05-17T07:50:03.844Z,3.20
2023-05-17T07:52:30.402Z,2.97
2023-05-17T07:54:57.044Z,3.22
2023-05-17T07:57:23.526Z,2.90
2023-05-17T07:59:51.341Z,3.35
2023-05-17T08:02:17.824Z,3.35
2023-05-17T08:04:44.367Z,3.13
2023-05-17T08:07:11.350Z,2.45
2023-05-17T08:09:37.850Z,3.05
2023-05-17T08:12:04.688Z,3.63
2023-05-17T08:14:31.364Z,3.42
2023-05-17T08:16:59.299Z,3.60
2023-05-17T08:19:25.939Z,3.03
2023-05-17T08:21:52.579Z,4.85
2023-05-17T08:24:19.188Z,3.80
2023-05-17T08:26:45.678Z,3.42
2023-05-17T08:29:13.328Z,3.60
2023-05-17T08:31:39.836Z,4.38
2023-05-17T08:34:07.753Z,3.72
2023-05-17T08:36:34.410Z,3.92
2023-05-17T08:39:00.891Z,4.80
2023-05-17T08:41:27.574Z,3.60
2023-05-17T08:43:55.071Z,3.55
2023-05-17T08:48:50.170Z,3.33
2023-05-17T08:51:19.540Z,4.10
2023-05-17T08:53:49.198Z,2.70
2023-05-17T08:56:16.965Z,3.17
2023-05-17T08:58:55.370Z,2.97
2023-05-17T09:04:15.989Z,3.72
2023-05-17T09:06:44.116Z,3.67
2023-05-17T09:09:10.672Z,3.50
2023-05-17T09:11:37.509Z,3.50
2023-05-17T09:14:06.363Z,3.35
2023-05-17T09:16:34.007Z,3.20
2023-05-17T09:19:01.281Z,3.22
2023-05-17T09:24:07.825Z,3.28
2023-05-17T09:26:38.880Z,3.13
2023-05-17T09:29:08.392Z,3.33
2023-05-17T09:31:34.901Z,3.45
2023-05-17T09:34:02.300Z,2.93
2023-05-17T09:36:28.915Z,3.50
2023-05-17T09:38:56.605Z,2.97
2023-05-17T09:41:26.911Z,2.50
2023-05-17T09:43:53.476Z,2.75
2023-05-17T09:46:20.135Z,2.70
2023-05-17T09:48:53.556Z,3.15
2023-05-17T09:51:20.250Z,3.03
2023-05-17T09:53:46.769Z,3.83
2023-05-17T09:56:13.329Z,3.27
2023-05-17T09:58:42.661Z,2.60
2023-05-17T10:01:09.945Z,3.10
2023-05-17T10:03:37.444Z,2.67
2023-05-17T10:06:07.197Z,3.22
2023-05-17T10:08:34.170Z,2.38
2023-05-17T10:11:08.123Z,3.25
2023-05-17T10:13:39.900Z,2.70
2023-05-17T10:16:08.023Z,3.30
2023-05-17T10:18:35.106Z,2.95
2023-05-17T10:21:01.987Z,3.13
2023-05-17T10:23:30.886Z,3.35
2023-05-17T10:25:58.849Z,3.80
2023-05-17T10:28:27.349Z,3.13
2023-05-17T10:30:54.430Z,3.20
2023-05-17T10:33:22.419Z,2.70
2023-05-17T10:35:50.616Z,3.40
2023-05-17T10:38:18.326Z,3.03
2023-05-17T10:40:46.338Z,3.40
2023-05-17T10:43:13.986Z,3.00
2023-05-17T10:45:41.332Z,3.30
2023-05-17T10:48:08.603Z,3.10
2023-05-17T10:50:38.540Z,3.33
2023-05-17T10:53:08.873Z,3.30
2023-05-17T10:55:38.921Z,3.13
2023-05-17T10:58:17.498Z,3.05
2023-05-17T11:00:45.366Z,3.15
2023-05-17T11:03:17.114Z,3.17
2023-05-17T11:06:05.797Z,4.35
2023-05-17T11:11:09.778Z,3.20
2023-05-17T11:13:44.870Z,3.17
2023-05-17T11:16:17.376Z,3.20
2023-05-17T11:18:49.329Z,3.45
2023-05-17T11:21:17.385Z,3.22
2023-05-17T11:23:45.247Z,2.90
2023-05-17T11:26:21.942Z,3.92
2023-05-17T11:28:48.719Z,3.90
2023-05-17T11:31:15.246Z,3.13
2023-05-17T11:33:43.803Z,3.72
2023-05-17T11:36:20.897Z,3.42
2023-05-17T11:39:08.790Z,4.07
2023-05-17T11:41:37.693Z,3.43
2023-05-17T11:44:04.674Z,3.45
2023-05-17T11:46:31.774Z,3.97
2023-05-17T11:49:01.386Z,3.40
2023-05-17T11:51:31.548Z,3.90
2023-05-17T11:53:58.884Z,3.75
2023-05-17T11:56:41.996Z,3.35
2023-05-17T11:59:10.007Z,4.00
2023-05-17T12:01:43.008Z,3.50
2023-05-17T12:04:09.565Z,3.97
2023-05-17T12:06:37.786Z,3.90
2023-05-17T12:09:04.400Z,3.92
2023-05-17T12:11:30.964Z,4.07
2023-05-17T12:13:57.551Z,4.10
2023-05-17T12:16:25.537Z,4.07
2023-05-17T12:18:52.277Z,4.15
2023-05-17T12:21:19.063Z,5.03
2023-05-17T12:23:51.063Z,3.95
2023-05-17T12:26:19.262Z,4.90
2023-05-17T12:28:52.573Z,3.63
2023-05-17T12:31:22.424Z,3.97
2023-05-17T12:33:49.172Z,3.38
2023-05-17T12:36:16.617Z,3.95
2023-05-17T12:38:44.677Z,3.88
2023-05-17T12:41:15.777Z,3.85
2023-05-17T12:43:44.574Z,3.35
2023-05-17T12:46:13.808Z,4.30
2023-05-17T12:48:41.519Z,4.10
2023-05-17T12:51:11.852Z,3.50
2023-05-17T12:53:40.583Z,3.13
2023-05-17T12:56:07.956Z,3.33
2023-05-17T12:58:36.096Z,3.90
2023-05-17T13:01:04.199Z,3.72
2023-05-17T13:03:30.866Z,3.63
2023-05-17T13:05:59.061Z,4.03
2023-05-17T13:08:25.586Z,3.70
2023-05-17T13:10:52.118Z,3.35
2023-05-17T13:13:19.777Z,4.43
2023-05-17T13:15:47.599Z,4.15
2023-05-17T13:18:14.265Z,4.38
2023-05-17T13:20:40.838Z,3.47
2023-05-17T13:23:07.328Z,3.90
2023-05-17T13:25:33.900Z,3.70
2023-05-17T13:28:00.388Z,4.53
2023-05-17T13:30:26.897Z,4.07
2023-05-17T13:32:54.881Z,4.57
2023-05-17T13:35:21.526Z,3.70
2023-05-17T13:37:48.027Z,4.03
2023-05-17T13:40:15.262Z,4.07
2023-05-17T13:42:41.805Z,3.63
2023-05-17T13:45:09.230Z,3.80
2023-05-17T13:50:04.106Z,3.65
2023-05-17T13:52:30.701Z,3.92
2023-05-17T13:54:57.343Z,3.45
2023-05-17T13:57:23.858Z,3.93
2023-05-17T13:59:50.367Z,3.17
2023-05-17T14:02:16.906Z,3.78
2023-05-17T14:04:43.430Z,3.47
2023-05-17T14:07:11.251Z,4.25
2023-05-17T14:09:37.766Z,3.55
2023-05-17T14:12:04.951Z,3.83
2023-05-17T14:14:31.468Z,3.28
2023-05-17T14:16:57.971Z,3.97
2023-05-17T14:19:24.628Z,3.42
2023-05-17T14:21:51.192Z,3.75
2023-05-17T14:24:19.031Z,4.10
2023-05-17T14:26:45.495Z,3.72
2023-05-17T14:29:11.972Z,4.05
2023-05-17T14:31:38.456Z,4.18
2023-05-17T14:34:05.078Z,3.33
2023-05-17T14:36:31.682Z,4.90
2023-05-17T14:38:58.180Z,4.32
2023-05-17T14:41:26.056Z,4.38
2023-05-17T14:43:52.657Z,3.95
2023-05-17T14:46:19.250Z,3.83
2023-05-17T14:48:45.777Z,4.18
2023-05-17T14:51:12.363Z,5.15
2023-05-17T14:53:38.877Z,3.58
2023-05-17T14:56:06.548Z,4.53
2023-05-17T14:58:34.428Z,4.10
2023-05-17T15:01:05.362Z,3.30
2023-05-17T15:03:32.454Z,3.60
2023-05-17T15:05:59.039Z,3.13
2023-05-17T15:08:27.089Z,3.78
2023-05-17T15:10:53.609Z,3.83
2023-05-17T15:13:20.144Z,3.55
2023-05-17T15:15:47.973Z,3.58
2023-05-17T15:18:14.539Z,3.83
2023-05-17T15:20:41.589Z,3.72
2023-05-17T15:23:08.071Z,3.53
2023-05-17T15:25:34.574Z,3.72
2023-05-17T15:28:01.177Z,4.05
2023-05-17T15:30:27.730Z,3.65
2023-05-17T15:32:55.993Z,3.80
2023-05-17T15:35:22.491Z,4.28
2023-05-17T15:37:49.234Z,4.38
2023-05-17T15:40:15.798Z,4.43
2023-05-17T15:42:42.321Z,4.57
2023-05-17T15:45:09.473Z,4.20
2023-05-17T15:47:43.275Z,4.88
2023-05-17T15:50:11.929Z,5.10
2023-05-17T15:52:38.878Z,4.22
2023-05-17T15:55:06.089Z,4.22
2023-05-17T15:57:32.628Z,3.65
2023-05-17T15:59:59.392Z,4.43
2023-05-17T16:02:25.961Z,4.38
2023-05-17T16:04:52.500Z,3.92
2023-05-17T16:07:20.330Z,4.07
2023-05-17T16:09:46.846Z,3.97
2023-05-17T16:12:13.358Z,3.97
2023-05-17T16:14:39.877Z,3.35
2023-05-17T16:17:06.333Z,4.53
2023-05-17T16:19:32.955Z,3.88
2023-05-17T16:21:59.606Z,3.73
2023-05-17T16:24:27.478Z,4.45
2023-05-17T16:26:53.994Z,4.57
2023-05-17T16:29:20.480Z,3.95
2023-05-17T16:31:47.860Z,4.45
2023-05-17T16:34:14.481Z,4.10
2023-05-17T16:36:41.073Z,3.70
2023-05-17T16:39:07.596Z,4.68
2023-05-17T16:41:35.402Z,3.60
2023-05-17T16:44:01.885Z,5.03
2023-05-17T16:46:28.385Z,4.05
2023-05-17T16:48:54.877Z,4.93
2023-05-17T16:51:21.401Z,4.20
2023-05-17T16:53:47.898Z,3.42
2023-05-17T16:56:14.427Z,3.90
2023-05-17T16:58:42.394Z,4.15
2023-05-17T17:01:08.908Z,3.63
2023-05-17T17:03:35.489Z,3.88
2023-05-17T17:06:02.154Z,4.63
2023-05-17T17:08:28.646Z,3.88
2023-05-17T17:10:55.131Z,3.72
2023-05-17T17:13:21.661Z,4.25
2023-05-17T17:15:49.843Z,4.05
2023-05-17T17:18:16.430Z,3.80
2023-05-17T17:20:42.958Z,3.97
2023-05-17T17:23:09.671Z,4.30
2023-05-17T17:25:36.157Z,3.90
2023-05-17T17:28:02.627Z,4.22
2023-05-17T17:30:29.337Z,3.95
2023-05-17T17:32:57.763Z,3.70
2023-05-17T17:35:24.429Z,3.80
2023-05-17T17:37:50.971Z,4.32
2023-05-17T17:40:17.750Z,4.00
2023-05-17T17:42:44.258Z,3.67
2023-05-17T17:45:11.077Z,3.42
2023-05-17T17:47:37.638Z,3.85
2023-05-17T17:50:07.107Z,3.72
2023-05-17T17:52:33.598Z,3.50
2023-05-17T17:55:00.102Z,4.50
2023-05-17T17:57:26.660Z,4.13
2023-05-17T17:59:53.136Z,3.85
2023-05-17T18:02:19.599Z,3.83
2023-05-17T18:04:46.118Z,4.38
2023-05-17T18:07:13.998Z,4.35
2023-05-17T18:09:40.581Z,4.60
2023-05-17T18:12:07.794Z,3.95
2023-05-17T18:14:34.298Z,4.63
2023-05-17T18:17:00.860Z,4.22
2023-05-17T18:19:27.562Z,3.50
2023-05-17T18:21:54.048Z,3.78
2023-05-17T18:24:21.934Z,3.97
2023-05-17T18:26:48.438Z,4.55
2023-05-17T18:29:14.947Z,4.65
2023-05-17T18:31:41.592Z,4.85
2023-05-17T18:34:08.762Z,4.53
2023-05-17T18:36:35.257Z,4.97
2023-05-17T18:39:01.905Z,4.75
2023-05-17T18:41:29.763Z,4.60
2023-05-17T18:43:56.246Z,4.25
2023-05-17T18:46:22.772Z,4.30
2023-05-17T18:48:49.298Z,3.97
2023-05-17T18:51:15.805Z,4.10
2023-05-17T18:53:42.391Z,4.43
2023-05-17T18:56:08.932Z,4.25
2023-05-17T18:58:36.779Z,4.45
2023-05-17T19:01:03.390Z,4.07
2023-05-17T19:03:31.587Z,4.40
2023-05-17T19:05:58.106Z,3.72
2023-05-17T19:08:24.638Z,3.75
2023-05-17T19:10:51.191Z,3.88
2023-05-17T19:13:17.650Z,3.92
2023-05-17T19:15:45.535Z,3.95
2023-05-17T19:18:12.058Z,3.40
2023-05-17T19:20:38.603Z,4.40
2023-05-17T19:23:05.089Z,4.40
2023-05-17T19:25:31.615Z,4.00
2023-05-17T19:27:58.075Z,4.90
2023-05-17T19:30:24.599Z,5.18
2023-05-17T19:32:52.445Z,5.05
2023-05-17T19:35:19.178Z,4.28
2023-05-17T19:37:45.641Z,4.33
2023-05-17T19:40:13.015Z,4.45
2023-05-17T19:42:39.501Z,4.80
2023-05-17T19:45:08.911Z,4.65
2023-05-17T19:47:35.426Z,4.85
2023-05-17T19:50:03.377Z,5.47
2023-05-17T19:52:29.872Z,4.03
2023-05-17T19:54:56.335Z,3.85
2023-05-17T19:57:22.822Z,4.45
2023-05-17T19:59:51.444Z,4.32
2023-05-17T20:02:18.979Z,4.90
2023-05-17T20:04:46.147Z,4.65
2023-05-17T20:07:14.086Z,6.10
2023-05-17T20:09:40.770Z,4.30
2023-05-17T20:12:07.904Z,4.23
2023-05-17T20:14:34.687Z,4.53
2023-05-17T20:17:01.207Z,5.15
2023-05-17T20:19:27.827Z,5.35
2023-05-17T20:21:54.475Z,5.40
2023-05-17T20:24:22.706Z,5.20
2023-05-17T20:26:49.206Z,4.47
2023-05-17T20:29:15.905Z,5.03
2023-05-17T20:31:42.464Z,5.37
2023-05-17T20:34:09.227Z,4.80
2023-05-17T20:36:35.714Z,5.73
2023-05-17T20:39:02.329Z,5.05
2023-05-17T20:41:30.250Z,5.53
2023-05-17T20:43:56.763Z,5.15
2023-05-17T20:46:23.523Z,4.93
2023-05-17T20:48:50.219Z,5.13
2023-05-17T20:51:16.970Z,4.40
2023-05-17T20:53:43.706Z,5.22
2023-05-17T20:56:10.662Z,4.80
2023-05-17T20:58:38.507Z,4.55
2023-05-17T21:01:05.134Z,5.20
2023-05-17T21:03:32.491Z,6.00
2023-05-17T21:05:59.223Z,5.20
2023-05-17T21:08:25.681Z,5.20
2023-05-17T21:10:52.234Z,5.90
2023-05-17T21:13:18.911Z,5.70
2023-05-17T21:15:46.952Z,6.03
2023-05-17T21:18:13.482Z,4.70
2023-05-17T21:20:40.025Z,5.50
2023-05-17T21:23:06.545Z,5.25
2023-05-17T21:25:33.301Z,5.95
2023-05-17T21:28:00.014Z,6.45
2023-05-17T21:30:26.598Z,5.45
2023-05-17T21:32:54.539Z,5.40
2023-05-17T21:35:21.532Z,5.10
2023-05-17T21:37:48.028Z,4.75
2023-05-17T21:40:14.571Z,5.90
2023-05-17T21:42:41.776Z,5.55
2023-05-17T21:45:08.903Z,5.25
2023-05-17T21:47:35.454Z,5.65
2023-05-17T21:50:03.599Z,6.43
2023-05-17T21:52:30.185Z,6.07
2023-05-17T21:54:56.730Z,5.80
2023-05-17T21:57:23.270Z,6.03
2023-05-17T21:59:50.787Z,5.65
2023-05-17T22:04:43.752Z,5.55
2023-05-17T22:07:11.703Z,6.15
2023-05-17T22:09:38.228Z,6.60
2023-05-17T22:12:05.601Z,8.68
2023-05-17T22:14:32.099Z,6.57
2023-05-17T22:16:58.701Z,5.78
2023-05-17T22:19:25.261Z,7.20
2023-05-17T22:21:51.904Z,6.75
2023-05-17T22:24:19.784Z,6.73
2023-05-17T22:26:46.285Z,7.07
2023-05-17T22:29:12.761Z,7.53
2023-05-17T22:31:39.286Z,5.78
2023-05-17T22:34:05.953Z,6.80
2023-05-17T22:36:32.550Z,6.57
2023-05-17T22:38:59.085Z,7.37
2023-05-17T22:41:27.559Z,7.05
2023-05-17T22:43:54.085Z,7.65
2023-05-17T22:46:20.634Z,6.53
2023-05-17T22:48:47.225Z,6.77
2023-05-17T22:51:13.745Z,7.37
2023-05-17T22:53:40.279Z,7.18
2023-05-17T22:56:06.786Z,6.85
2023-05-17T22:58:34.615Z,8.40
2023-05-17T23:01:01.109Z,6.22
2023-05-17T23:03:27.683Z,7.05
2023-05-17T23:05:54.348Z,7.60
2023-05-17T23:08:20.829Z,7.20
2023-05-17T23:10:47.387Z,6.75
2023-05-17T23:13:13.955Z,6.97
2023-05-17T23:15:41.807Z,8.30
2023-05-17T23:18:08.326Z,6.60
2023-05-17T23:20:34.950Z,7.22
2023-05-17T23:23:01.515Z,6.70
2023-05-17T23:25:28.115Z,8.00
2023-05-17T23:27:54.977Z,7.78
2023-05-17T23:30:21.500Z,7.90
2023-05-17T23:32:49.312Z,6.82
2023-05-17T23:35:15.837Z,7.32
2023-05-17T23:37:42.364Z,7.78
2023-05-17T23:40:10.048Z,7.07
2023-05-17T23:42:36.529Z,7.75
2023-05-17T23:45:03.534Z,6.47
2023-05-17T23:47:30.195Z,6.97
2023-05-17T23:49:58.023Z,7.28
2023-05-17T23:52:24.508Z,7.28
2023-05-17T23:54:51.035Z,7.30
2023-05-17T23:57:17.495Z,7.05
2023-05-17T23:59:43.993Z,6.03
